Time;durP1;ratioP1;P1;durP2;ratioP2;P2;SDS_P1;SDS_P2;PMS_P1;PMS_P2;Temp;Humidity;BMP_temperature;BMP_pressure;BME280_temperature;BME280_humidity;BME280_pressure;Samples;Min_cycle;Max_cycle;Signal;HPM_P1;HPM_P2
2021/06/15 00:00:11;;;;;;;7.47;4.90;;;;;;;16.16;80.77;99973.80;1766240;79;21107;-71
2021/06/15 00:02:37;;;;;;;6.80;4.78;;;;;;;16.13;80.89;99974.64;1743388;79;22472;-70
2021/06/15 00:05:05;;;;;;;8.05;4.65;;;;;;;16.13;80.94;99978.64;1765101;80;21067;-70
2021/06/15 00:07:32;;;;;;;8.35;4.78;;;;;;;16.15;80.95;99973.97;1755112;80;21111;-72
2021/06/15 00:09:59;;;;;;;6.47;4.58;;;;;;;16.17;80.92;99970.63;1759719;80;21027;-70
2021/06/15 00:12:25;;;;;;;5.33;4.80;;;;;;;16.18;81.00;99967.80;1751815;80;21419;-70
2021/06/15 00:14:52;;;;;;;7.35;5.20;;;;;;;16.15;81.00;99974.80;1766940;79;22742;-70
2021/06/15 00:17:19;;;;;;;8.28;5.00;;;;;;;16.10;81.01;99982.95;1751651;79;21023;-70
2021/06/15 00:19:46;;;;;;;7.55;4.90;;;;;;;16.09;81.01;99985.28;1768662;79;21458;-70
2021/06/15 00:22:12;;;;;;;11.80;4.85;;;;;;;16.09;81.19;99982.12;1743535;80;20983;-69
2021/06/15 00:24:39;;;;;;;6.00;4.70;;;;;;;16.11;81.21;99980.62;1737806;80;21020;-69
2021/06/15 00:27:06;;;;;;;8.13;5.05;;;;;;;16.13;81.14;99971.98;1766734;79;22252;-69
2021/06/15 00:29:33;;;;;;;7.35;4.78;;;;;;;16.13;81.07;99971.48;1773542;78;20988;-70
2021/06/15 00:32:00;;;;;;;6.40;4.87;;;;;;;16.09;81.09;99973.30;1773411;80;20988;-70
2021/06/15 00:34:26;;;;;;;7.83;5.08;;;;;;;16.05;81.06;99976.80;1766806;80;20933;-70
2021/06/15 00:36:53;;;;;;;7.65;4.92;;;;;;;16.03;81.02;99975.64;1759822;79;20977;-69
2021/06/15 00:39:20;;;;;;;6.87;4.90;;;;;;;16.05;80.99;99977.30;1764044;79;21671;-70
2021/06/15 00:41:46;;;;;;;6.28;4.67;;;;;;;16.06;80.92;99969.14;1762680;79;21130;-70
2021/06/15 00:44:13;;;;;;;6.42;4.90;;;;;;;16.09;80.85;99974.62;1741388;80;21056;-69
2021/06/15 00:46:39;;;;;;;5.90;4.55;;;;;;;16.08;80.78;99972.97;1767768;79;21074;-70
2021/06/15 00:49:07;;;;;;;6.78;4.67;;;;;;;16.05;80.69;99982.64;1769895;79;21011;-70
2021/06/15 00:51:34;;;;;;;6.50;5.03;;;;;;;15.95;80.80;99980.97;1763462;79;21840;-71
2021/06/15 00:54:01;;;;;;;6.83;5.30;;;;;;;15.86;80.98;99977.96;1746373;79;21098;-70
2021/06/15 00:56:28;;;;;;;7.15;5.00;;;;;;;15.85;81.08;99982.12;1765968;80;21185;-70
2021/06/15 00:58:55;;;;;;;7.92;4.90;;;;;;;15.84;81.09;99981.80;1764051;79;21028;-70
2021/06/15 01:01:23;;;;;;;6.45;4.97;;;;;;;15.85;81.03;99983.45;1764934;80;20984;-71
2021/06/15 01:03:51;;;;;;;7.03;5.08;;;;;;;15.85;80.94;99982.95;1769532;80;21844;-69
2021/06/15 01:06:21;;;;;;;7.47;5.12;;;;;;;15.86;80.79;99978.46;1760479;79;21079;-71
2021/06/15 01:08:56;;;;;;;6.60;4.65;;;;;;;15.85;80.75;99972.30;1709071;80;21056;-70
2021/06/15 01:11:52;;;;;;;5.78;4.58;;;;;;;15.83;80.74;99968.15;1754427;80;21099;-69
2021/06/15 01:14:54;;;;;;;6.22;4.78;;;;;;;15.77;80.79;99968.80;1762921;79;21517;-69
2021/06/15 01:17:38;;;;;;;8.03;4.70;;;;;;;15.73;80.83;99968.31;1766977;80;22479;-70
2021/06/15 01:20:14;;;;;;;9.05;5.20;;;;;;;15.72;80.76;99960.79;1746100;79;21091;-70
2021/06/15 01:22:53;;;;;;;10.43;4.92;;;;;;;15.73;80.72;99957.16;1732166;82;21075;-70
2021/06/15 01:25:29;;;;;;;5.40;4.80;;;;;;;15.74;80.64;99961.48;1729668;81;21067;-72
2021/06/15 01:28:18;;;;;;;7.60;4.80;;;;;;;15.74;80.57;99962.81;1729132;81;21454;-72
2021/06/15 01:30:59;;;;;;;7.97;4.50;;;;;;;15.72;80.60;99964.78;1729680;82;21840;-71
2021/06/15 01:33:26;;;;;;;8.70;4.87;;;;;;;15.67;80.72;99972.45;1770391;80;21415;-71
2021/06/15 01:35:53;;;;;;;7.95;5.00;;;;;;;15.65;80.73;99976.28;1754714;80;21578;-70
2021/06/15 01:38:25;;;;;;;8.78;5.05;;;;;;;15.68;80.76;99967.95;1743257;80;21502;-71
2021/06/15 01:40:59;;;;;;;7.30;4.78;;;;;;;15.66;80.77;99968.13;1769933;80;20984;-70
2021/06/15 01:43:44;;;;;;;8.38;4.78;;;;;;;15.66;80.81;99968.13;1735151;80;21851;-70
2021/06/15 01:46:12;;;;;;;7.50;5.25;;;;;;;15.66;80.88;99965.96;1736131;80;21474;-71
2021/06/15 01:48:51;;;;;;;7.75;5.22;;;;;;;15.64;81.04;99970.63;1751754;80;21016;-70
2021/06/15 01:51:18;;;;;;;8.35;5.25;;;;;;;15.62;81.16;99974.75;1758305;80;21522;-70
2021/06/15 01:53:49;;;;;;;9.03;5.67;;;;;;;15.62;81.32;99973.92;1748401;80;21451;-71
2021/06/15 01:56:18;;;;;;;9.15;5.40;;;;;;;15.63;81.45;99980.44;1744815;79;21859;-69
2021/06/15 01:58:47;;;;;;;8.10;5.12;;;;;;;15.64;81.62;99970.13;1734604;81;21016;-69
2021/06/15 02:01:15;;;;;;;10.05;5.25;;;;;;;15.67;81.73;99975.61;1708097;81;20966;-69
2021/06/15 02:03:44;;;;;;;8.78;5.37;;;;;;;15.70;81.90;99974.77;1700036;82;21504;-69
2021/06/15 02:06:12;;;;;;;7.47;5.03;;;;;;;15.70;81.95;99976.11;1695228;83;21027;-69
2021/06/15 02:08:44;;;;;;;8.38;5.20;;;;;;;15.71;81.94;99975.61;1742910;80;22163;-70
2021/06/15 02:11:13;;;;;;;7.95;5.42;;;;;;;15.71;81.96;99983.59;1752332;80;21066;-71
2021/06/15 02:13:45;;;;;;;6.00;5.40;;;;;;;15.70;81.99;99977.44;1753157;79;20924;-69
2021/06/15 02:16:28;;;;;;;6.55;5.30;;;;;;;15.69;82.00;99974.94;1740095;80;21033;-69
2021/06/15 02:19:13;;;;;;;7.10;5.45;;;;;;;15.69;82.03;99980.27;1722955;81;21009;-70
2021/06/15 02:21:41;;;;;;;7.60;5.60;;;;;;;15.66;82.06;99981.44;1700582;83;21834;-70
2021/06/15 02:24:09;;;;;;;11.90;5.40;;;;;;;15.68;82.15;99975.94;1723976;79;21071;-70
2021/06/15 02:26:35;;;;;;;7.70;5.40;;;;;;;15.69;82.22;99973.11;1770543;80;21118;-70
2021/06/15 02:29:03;;;;;;;6.05;5.40;;;;;;;15.71;82.22;99973.77;1756609;80;21078;-71
2021/06/15 02:31:38;;;;;;;6.75;5.83;;;;;;;15.69;82.28;99984.27;1758486;79;21075;-69
2021/06/15 02:34:13;;;;;;;8.10;6.22;;;;;;;15.63;82.46;99987.09;1753128;80;22267;-70
2021/06/15 02:36:42;;;;;;;7.42;5.90;;;;;;;15.63;82.92;99984.44;1767211;80;21577;-70
2021/06/15 02:39:21;;;;;;;6.90;5.70;;;;;;;15.67;83.30;99990.25;1685053;80;21035;-70
2021/06/15 02:41:48;;;;;;;10.68;5.85;;;;;;;15.69;83.31;99986.92;1767176;79;21054;-69
2021/06/15 02:44:18;;;;;;;7.28;6.50;;;;;;;15.73;83.47;99994.44;1746109;79;21014;-70
2021/06/15 02:46:45;;;;;;;8.83;6.37;;;;;;;15.75;83.78;99996.92;1732031;80;22486;-69
2021/06/15 02:49:21;;;;;;;9.60;6.12;;;;;;;15.79;83.96;99990.77;1747407;80;21084;-68
2021/06/15 02:52:02;;;;;;;7.22;6.40;;;;;;;15.86;84.21;99993.94;1744301;79;20985;-69
2021/06/15 02:54:32;;;;;;;7.00;6.30;;;;;;;15.94;84.42;99996.62;1770614;80;21003;-69
2021/06/15 02:57:00;;;;;;;9.55;7.15;;;;;;;15.98;84.70;99997.11;1770092;79;21098;-70
2021/06/15 02:59:27;;;;;;;11.25;7.08;;;;;;;15.99;84.83;99992.94;1756506;79;21792;-71
2021/06/15 03:01:54;;;;;;;8.13;7.33;;;;;;;16.04;85.03;99988.46;1758847;79;21016;-71
2021/06/15 03:04:22;;;;;;;10.53;7.83;;;;;;;16.06;85.31;99988.30;1747427;80;21420;-70
2021/06/15 03:06:49;;;;;;;8.50;7.25;;;;;;;16.19;85.66;99985.95;1740881;80;21467;-69
2021/06/15 03:09:17;;;;;;;10.38;7.53;;;;;;;16.25;85.80;99985.29;1756837;79;20924;-70
2021/06/15 03:12:08;;;;;;;8.75;7.60;;;;;;;16.33;85.98;99986.62;1693335;81;21863;-69
2021/06/15 03:14:35;;;;;;;8.58;7.67;;;;;;;16.40;86.09;99979.59;1730052;80;20969;-69
2021/06/15 03:17:06;;;;;;;9.15;7.47;;;;;;;16.46;86.14;99986.92;1758358;79;21182;-70
2021/06/15 03:20:07;;;;;;;8.83;8.03;;;;;;;16.52;86.22;99988.09;1763561;79;21529;-71
2021/06/15 03:23:13;;;;;;;10.18;8.53;;;;;;;16.61;86.33;99989.74;1753812;80;20933;-70
2021/06/15 03:25:41;;;;;;;;;;;;;;;16.76;86.54;99988.05;1757311;79;22383;-71
2021/06/15 03:28:16;;;;;;;8.90;7.83;;;;;;;16.90;86.67;99989.20;1731755;80;20196;-70
2021/06/15 03:30:43;;;;;;;10.05;7.58;;;;;;;17.00;86.69;99992.49;1770159;78;21304;-69
2021/06/15 03:33:16;;;;;;;12.15;9.70;;;;;;;17.08;86.64;99996.94;1735834;80;21710;-69
2021/06/15 03:35:50;;;;;;;10.87;9.07;;;;;;;17.15;86.57;99989.91;1765890;80;20897;-70
2021/06/15 03:38:17;;;;;;;11.40;8.80;;;;;;;17.24;86.53;99985.37;1733118;79;21843;-71
2021/06/15 03:40:50;;;;;;;10.08;8.13;;;;;;;17.34;86.45;99984.66;1727133;80;21055;-70
2021/06/15 03:43:19;;;;;;;8.60;7.80;;;;;;;17.40;86.37;99979.45;1759712;80;21070;-71
2021/06/15 03:45:50;;;;;;;8.50;7.70;;;;;;;17.49;86.23;99980.25;1743913;79;21038;-70
2021/06/15 03:48:17;;;;;;;10.55;7.80;;;;;;;17.57;86.10;99981.53;1752108;79;21005;-71
2021/06/15 03:50:44;;;;;;;9.48;8.00;;;;;;;17.65;85.87;99981.45;1758576;79;21856;-72
2021/06/15 03:53:11;;;;;;;10.35;8.78;;;;;;;17.74;85.67;99986.28;1745029;80;21099;-71
2021/06/15 03:55:40;;;;;;;13.10;8.25;;;;;;;17.82;85.49;99984.06;1753629;80;21055;-71
2021/06/15 03:58:07;;;;;;;9.20;8.15;;;;;;;17.89;85.29;99982.34;1757186;79;20956;-72
2021/06/15 04:00:37;;;;;;;8.15;7.35;;;;;;;17.96;85.10;99987.31;1764116;80;20928;-75
2021/06/15 04:03:06;;;;;;;8.25;7.35;;;;;;;18.03;84.95;99986.39;1756392;79;21788;-69
2021/06/15 04:05:35;;;;;;;7.50;6.78;;;;;;;18.10;84.65;99989.69;1731747;80;20984;-69
2021/06/15 04:08:05;;;;;;;7.90;6.90;;;;;;;18.17;84.44;99990.13;1776764;79;21526;-69
2021/06/15 04:10:33;;;;;;;8.10;6.85;;;;;;;18.25;84.21;99990.58;1760752;79;21514;-69
2021/06/15 04:13:02;;;;;;;7.85;7.15;;;;;;;18.31;83.97;99998.69;1733026;79;21699;-69
2021/06/15 04:15:29;;;;;;;8.25;7.12;;;;;;;18.37;83.78;99991.80;1752595;80;22418;-69
2021/06/15 04:17:57;;;;;;;8.15;7.33;;;;;;;18.46;83.53;99997.90;1734173;80;21408;-73
2021/06/15 04:20:29;;;;;;;12.00;7.37;;;;;;;18.52;83.12;100005.17;1753724;80;21040;-74
2021/06/15 04:22:58;;;;;;;8.58;6.78;;;;;;;18.58;82.73;100003.95;1754206;79;20950;-74
2021/06/15 04:25:29;;;;;;;11.33;6.95;;;;;;;18.67;82.49;99999.89;1763394;79;21428;-74
2021/06/15 04:27:55;;;;;;;7.62;6.42;;;;;;;18.73;81.97;100000.00;1718294;82;21818;-72
2021/06/15 04:30:22;;;;;;;8.08;6.78;;;;;;;18.77;81.62;100005.30;1737229;81;21004;-73
2021/06/15 04:32:55;;;;;;;8.00;6.85;;;;;;;18.85;81.34;100004.38;1719395;81;22534;-73
2021/06/15 04:35:41;;;;;;;9.13;6.40;;;;;;;18.89;80.83;99997.62;1734504;82;21095;-75
2021/06/15 04:38:17;;;;;;;8.55;7.05;;;;;;;18.97;80.35;100000.73;1667941;83;21773;-73
2021/06/15 04:40:48;;;;;;;8.43;6.58;;;;;;;19.03;80.00;100000.00;1724328;80;21717;-73
2021/06/15 04:43:51;;;;;;;10.35;7.00;;;;;;;19.10;79.56;99999.55;1763069;79;20937;-73
2021/06/15 04:46:25;;;;;;;10.10;6.50;;;;;;;19.16;79.24;100005.52;1770365;80;21020;-72
2021/06/15 04:49:08;;;;;;;7.83;6.47;;;;;;;19.24;78.71;100004.08;1759493;79;21701;-75
2021/06/15 04:51:35;;;;;;;10.40;6.28;;;;;;;19.29;77.96;100004.33;1757068;80;21043;-74
2021/06/15 04:54:02;;;;;;;7.22;6.53;;;;;;;19.34;77.59;100005.95;1763494;79;22170;-75
2021/06/15 04:56:31;;;;;;;8.93;6.40;;;;;;;19.39;77.09;100000.84;1750001;79;21015;-75
2021/06/15 04:59:00;;;;;;;8.50;6.40;;;;;;;19.43;77.00;100000.81;1763133;79;20973;-75
2021/06/15 05:01:27;;;;;;;7.47;6.60;;;;;;;19.52;76.78;99998.86;1771250;80;21328;-72
2021/06/15 05:03:54;;;;;;;8.85;6.80;;;;;;;19.58;76.33;99999.45;1758839;80;20956;-74
2021/06/15 05:06:21;;;;;;;8.60;6.72;;;;;;;19.62;75.76;99994.56;1725262;80;22641;-69
2021/06/15 05:08:58;;;;;;;7.87;6.60;;;;;;;19.66;75.44;99985.11;1728138;81;21064;-71
2021/06/15 05:11:26;;;;;;;8.35;6.10;;;;;;;19.69;74.79;99984.24;1758216;79;20956;-70
2021/06/15 05:13:54;;;;;;;8.60;6.17;;;;;;;19.70;74.24;99983.22;1765757;79;21421;-71
2021/06/15 05:16:22;;;;;;;7.42;6.50;;;;;;;19.70;74.16;99983.22;1767659;79;21451;-77
2021/06/15 05:18:50;;;;;;;7.75;6.83;;;;;;;19.70;74.16;99985.90;1732963;80;22670;-72
2021/06/15 05:21:21;;;;;;;7.45;6.75;;;;;;;19.75;74.04;99984.48;1764017;79;21186;-73
2021/06/15 05:23:59;;;;;;;7.53;6.42;;;;;;;19.77;74.00;99986.45;1728913;80;21021;-71
2021/06/15 05:26:25;;;;;;;7.87;6.75;;;;;;;19.81;73.91;99992.60;1709178;80;20997;-78
2021/06/15 05:28:52;;;;;;;9.55;6.85;;;;;;;19.87;73.87;99995.01;1763450;80;21410;-79
2021/06/15 05:31:19;;;;;;;12.28;6.53;;;;;;;19.89;73.63;99996.50;1758016;79;22649;-76
2021/06/15 05:33:45;;;;;;;8.68;6.97;;;;;;;19.93;73.67;99996.42;1766674;80;21077;-79
2021/06/15 05:36:12;;;;;;;10.23;7.15;;;;;;;19.97;73.54;100003.05;1768468;78;21061;-83
2021/06/15 05:38:39;;;;;;;7.53;6.60;;;;;;;19.98;73.37;100003.39;1767364;79;21085;-86
2021/06/15 05:41:05;;;;;;;6.58;5.97;;;;;;;20.02;73.27;99994.45;1740579;80;21016;-82
2021/06/15 05:43:32;;;;;;;8.75;6.90;;;;;;;20.11;73.41;99997.83;1780769;79;21826;-83
2021/06/15 05:45:59;;;;;;;7.12;6.42;;;;;;;20.18;73.12;100000.89;1765294;79;21009;-77
2021/06/15 05:48:25;;;;;;;7.30;6.40;;;;;;;20.21;72.79;99999.16;1759357;80;20972;-78
2021/06/15 05:50:53;;;;;;;7.95;7.15;;;;;;;20.26;72.58;100006.61;1743416;79;21399;-76
2021/06/15 05:53:20;;;;;;;7.58;6.87;;;;;;;20.32;72.18;100010.37;1774033;79;21407;-77
2021/06/15 05:55:47;;;;;;;7.17;6.50;;;;;;;20.39;72.16;100008.08;1753432;79;21495;-76
2021/06/15 05:58:13;;;;;;;7.47;6.78;;;;;;;20.48;72.15;100001.58;1719404;82;21408;-78
2021/06/15 06:00:41;;;;;;;9.63;6.80;;;;;;;20.59;72.00;100005.57;1729500;81;21612;-79
2021/06/15 06:03:07;;;;;;;11.08;7.40;;;;;;;20.67;71.58;99999.23;1705367;81;21001;-79
2021/06/15 06:08:21;;;;;;;7.22;6.53;;;;;;;20.83;71.18;99989.50;1774553;79;22179;-74
2021/06/15 06:10:48;;;;;;;7.72;6.05;;;;;;;20.89;71.06;99979.33;1738194;81;21058;-77
2021/06/15 06:13:14;;;;;;;8.15;6.78;;;;;;;21.01;71.23;99982.28;1727199;81;20960;-77
2021/06/15 06:15:41;;;;;;;10.55;7.42;;;;;;;21.13;71.09;99984.22;1732449;81;20984;-75
2021/06/15 06:18:10;;;;;;;8.28;6.87;;;;;;;21.21;70.52;99980.51;1721425;82;21574;-75
2021/06/15 06:20:37;;;;;;;7.05;6.35;;;;;;;21.29;70.47;99985.74;1748147;80;22432;-78
2021/06/15 06:23:05;;;;;;;7.50;6.70;;;;;;;21.36;70.36;99983.09;1745288;79;21106;-77
2021/06/15 06:25:32;;;;;;;8.18;6.87;;;;;;;21.43;70.29;99976.72;1750480;80;21099;-75
2021/06/15 06:27:59;;;;;;;8.73;6.90;;;;;;;21.53;70.15;99980.36;1765873;80;20985;-73
2021/06/15 06:30:26;;;;;;;7.58;6.87;;;;;;;21.61;69.85;99973.43;1758614;79;20995;-75
2021/06/15 06:32:53;;;;;;;12.07;7.03;;;;;;;21.69;69.93;99973.25;1756438;79;22617;-72
2021/06/15 06:35:19;;;;;;;6.95;6.20;;;;;;;21.76;69.66;99966.55;1771631;79;21429;-73
2021/06/15 06:37:46;;;;;;;7.30;6.60;;;;;;;21.83;69.59;99975.47;1738434;81;21410;-78
2021/06/15 06:40:13;;;;;;;11.85;7.33;;;;;;;21.89;69.37;99973.28;1755918;79;20909;-75
2021/06/15 06:42:41;;;;;;;8.18;7.00;;;;;;;21.95;69.10;99962.23;1749373;79;21054;-74
2021/06/15 06:45:10;;;;;;;7.85;6.17;;;;;;;22.03;69.08;99964.72;1709021;82;21858;-75
2021/06/15 06:47:37;;;;;;;9.80;6.60;;;;;;;22.15;69.22;99961.75;1743927;80;21059;-76
2021/06/15 06:50:05;;;;;;;18.80;7.33;;;;;;;22.27;68.67;99959.26;1757654;80;21511;-75
2021/06/15 06:52:32;;;;;;;7.60;6.80;;;;;;;22.39;68.96;99970.21;1726536;80;21067;-74
2021/06/15 06:54:59;;;;;;;8.15;6.87;;;;;;;22.53;68.70;99967.31;1770473;79;21019;-76
2021/06/15 06:57:26;;;;;;;7.70;6.60;;;;;;;22.62;67.72;99961.71;1762045;80;22251;-73
2021/06/15 06:59:53;;;;;;;7.55;6.85;;;;;;;22.63;67.32;99967.40;1752254;80;21424;-73
2021/06/15 07:02:20;;;;;;;7.62;6.78;;;;;;;22.67;67.39;99961.38;1748598;79;21656;-73
2021/06/15 07:04:46;;;;;;;11.83;6.78;;;;;;;22.75;67.32;99964.36;1732266;79;21411;-73
2021/06/15 07:07:13;;;;;;;7.40;6.10;;;;;;;22.83;67.16;99965.48;1749714;80;21506;-73
2021/06/15 07:09:39;;;;;;;10.80;6.65;;;;;;;22.97;67.67;99964.45;1705878;82;21757;-73
2021/06/15 07:12:08;;;;;;;8.10;7.30;;;;;;;23.14;67.08;99962.91;1738317;81;20981;-73
2021/06/15 07:14:35;;;;;;;11.63;6.83;;;;;;;23.28;66.14;99965.05;1770363;80;20921;-73
2021/06/15 07:17:01;;;;;;;8.35;6.70;;;;;;;23.36;65.70;99951.34;1760964;79;20963;-74
2021/06/15 07:19:28;;;;;;;6.50;5.85;;;;;;;23.44;65.52;99955.63;1756287;80;21000;-74
2021/06/15 07:21:54;;;;;;;6.70;6.00;;;;;;;23.53;65.11;99961.06;1752728;80;21874;-72
2021/06/15 07:24:21;;;;;;;9.98;5.78;;;;;;;23.66;65.49;99958.86;1708582;81;21033;-73
2021/06/15 07:26:47;;;;;;;10.25;5.45;;;;;;;23.82;65.55;99965.06;1724195;81;20968;-72
2021/06/15 07:29:13;;;;;;;7.97;5.55;;;;;;;24.01;65.41;99965.14;1729448;81;21351;-73
2021/06/15 07:31:40;;;;;;;6.65;5.90;;;;;;;24.19;64.15;99954.41;1736857;81;20983;-72
2021/06/15 07:34:07;;;;;;;5.92;5.33;;;;;;;24.31;62.64;99955.37;1727878;81;21837;-72
2021/06/15 07:36:35;;;;;;;6.30;4.50;;;;;;;24.41;62.37;99955.69;1728212;80;20927;-73
2021/06/15 07:39:03;;;;;;;10.23;5.30;;;;;;;24.51;61.02;99956.03;1754610;79;21012;-73
2021/06/15 07:41:31;;;;;;;5.15;4.55;;;;;;;24.55;61.14;99961.27;1725758;82;20994;-72
2021/06/15 07:43:58;;;;;;;5.10;4.60;;;;;;;24.63;60.47;99951.24;1713740;82;20963;-75
2021/06/15 07:46:24;;;;;;;6.17;4.62;;;;;;;24.66;59.19;99953.48;1713627;82;22641;-75
2021/06/15 07:48:52;;;;;;;7.25;4.58;;;;;;;24.73;60.07;99959.65;1723500;82;21715;-73
2021/06/15 07:51:18;;;;;;;5.50;4.22;;;;;;;24.82;59.38;99957.78;1693446;82;21298;-71
2021/06/15 07:53:45;;;;;;;6.62;4.78;;;;;;;24.90;58.70;99957.16;1761822;80;21012;-72
2021/06/15 07:56:12;;;;;;;6.45;4.75;;;;;;;24.99;58.98;99957.97;1742246;80;21010;-72
2021/06/15 07:58:39;;;;;;;6.80;4.10;;;;;;;25.07;58.43;99955.00;1706501;81;21812;-72
2021/06/15 08:01:06;;;;;;;5.03;3.83;;;;;;;25.14;57.78;99952.76;1782562;77;21568;-71
2021/06/15 08:03:32;;;;;;;5.20;3.83;;;;;;;25.23;57.87;99951.39;1798953;78;21585;-74
2021/06/15 08:05:59;;;;;;;3.92;3.47;;;;;;;25.38;58.11;99951.80;1774270;80;21462;-72
2021/06/15 08:08:25;;;;;;;5.97;3.20;;;;;;;25.52;57.58;99946.52;1762568;79;21482;-70
2021/06/15 08:10:54;;;;;;;3.50;3.20;;;;;;;25.60;54.92;99939.44;1722843;80;22251;-71
2021/06/15 08:13:21;;;;;;;6.78;2.90;;;;;;;25.63;54.50;99941.67;1730453;80;21080;-68
2021/06/15 08:15:50;;;;;;;3.52;2.80;;;;;;;25.74;54.80;99946.84;1708332;82;22101;-68
2021/06/15 08:18:19;;;;;;;6.87;3.17;;;;;;;25.76;53.67;99943.38;1728373;81;21466;-70
2021/06/15 08:20:48;;;;;;;4.70;3.30;;;;;;;25.78;53.78;99942.64;1689288;82;21060;-69
2021/06/15 08:23:15;;;;;;;7.55;3.12;;;;;;;25.89;54.27;99941.02;1745346;80;21827;-71
2021/06/15 08:25:44;;;;;;;4.65;3.33;;;;;;;25.99;52.32;99940.45;1747462;80;21131;-75
2021/06/15 08:28:11;;;;;;;4.45;3.02;;;;;;;26.07;53.27;99940.93;1740312;80;21019;-72
2021/06/15 08:30:37;;;;;;;3.65;3.22;;;;;;;26.18;52.91;99929.28;1750555;79;21639;-70
2021/06/15 08:33:04;;;;;;;3.70;3.30;;;;;;;26.25;52.51;99940.01;1729332;80;21440;-70
2021/06/15 08:35:32;;;;;;;7.92;3.70;;;;;;;26.33;52.79;99932.04;1733222;80;22385;-70
2021/06/15 08:37:59;;;;;;;6.67;4.45;;;;;;;26.43;51.36;99933.66;1725446;80;21059;-70
2021/06/15 08:40:25;;;;;;;7.47;3.92;;;;;;;26.45;52.05;99936.98;1753074;79;21282;-72
2021/06/15 08:42:52;;;;;;;3.92;3.20;;;;;;;26.53;51.24;99936.59;1753105;79;21000;-70
2021/06/15 08:45:19;;;;;;;4.75;3.27;;;;;;;26.57;51.78;99929.66;1721449;80;21071;-70
2021/06/15 08:47:48;;;;;;;3.98;3.50;;;;;;;26.68;52.63;99928.81;1709588;81;21803;-68
2021/06/15 08:50:18;;;;;;;5.83;3.25;;;;;;;26.82;51.98;99932.08;1703065;81;21200;-70
2021/06/15 08:52:46;;;;;;;3.35;3.00;;;;;;;26.95;51.42;99936.42;1720603;82;21149;-68
2021/06/15 08:55:13;;;;;;;9.00;3.50;;;;;;;27.01;49.95;99933.56;1729037;81;21103;-69
2021/06/15 08:57:40;;;;;;;5.72;3.50;;;;;;;27.07;50.63;99935.89;1725475;80;21556;-68
2021/06/15 09:00:09;;;;;;;4.08;3.22;;;;;;;27.16;50.55;99941.22;1690542;82;22485;-69
2021/06/15 09:02:45;;;;;;;4.28;3.35;;;;;;;27.27;49.69;99935.46;1731290;80;21335;-70
2021/06/15 09:05:17;;;;;;;5.17;3.42;;;;;;;27.37;49.95;99940.55;1753412;78;21042;-70
2021/06/15 09:08:04;;;;;;;4.67;3.25;;;;;;;27.48;49.71;99931.24;1747685;79;21592;-70
2021/06/15 09:10:38;;;;;;;3.52;3.08;;;;;;;27.51;49.56;99923.99;1765584;79;21121;-69
2021/06/15 09:13:09;;;;;;;4.55;3.40;;;;;;;27.59;47.83;99935.25;1763630;80;22466;-70
2021/06/15 09:15:36;;;;;;;3.58;3.15;;;;;;;27.60;49.69;99931.49;1759320;80;21430;-70
2021/06/15 09:18:03;;;;;;;3.33;3.00;;;;;;;27.75;49.86;99932.31;1736427;80;21103;-70
2021/06/15 09:20:31;;;;;;;3.30;2.75;;;;;;;27.87;48.66;99929.52;1761315;79;21079;-70
2021/06/15 09:23:05;;;;;;;4.10;2.95;;;;;;;27.97;48.48;99924.79;1764146;80;21138;-69
2021/06/15 09:25:31;;;;;;;;;;;;;;;28.04;46.88;99928.17;1778879;80;21811;-70
2021/06/15 09:27:59;;;;;;;3.80;2.77;;;;;;;28.04;46.13;99920.02;1758660;80;20133;-70
2021/06/15 09:30:29;;;;;;;5.28;2.92;;;;;;;28.02;46.91;99924.89;1778625;78;21011;-69
2021/06/15 09:32:58;;;;;;;3.87;3.10;;;;;;;28.11;46.90;99919.33;1756005;80;22204;-72
2021/06/15 09:35:31;;;;;;;4.37;2.98;;;;;;;28.22;47.53;99919.77;1757120;80;21043;-71
2021/06/15 09:37:56;;;;;;;3.70;3.00;;;;;;;28.35;48.26;99927.59;1714522;82;22461;-71
2021/06/15 09:40:32;;;;;;;5.22;3.10;;;;;;;28.54;46.43;99919.98;1698451;81;21530;-70
2021/06/15 09:43:10;;;;;;;3.60;2.90;;;;;;;28.56;45.97;99915.11;1722217;81;21032;-72
2021/06/15 09:45:45;;;;;;;4.08;2.92;;;;;;;28.64;46.25;99917.94;1724212;80;21047;-74
2021/06/15 09:48:34;;;;;;;4.05;2.95;;;;;;;28.66;46.11;99913.92;1738545;79;21146;-74
2021/06/15 09:51:11;;;;;;;3.22;2.92;;;;;;;28.75;44.53;99909.66;1738900;79;21804;-74
2021/06/15 09:53:44;;;;;;;3.08;2.87;;;;;;;28.80;44.43;99907.02;1734994;81;21079;-72
2021/06/15 09:56:14;;;;;;;4.28;2.83;;;;;;;28.90;45.62;99902.28;1716037;81;21127;-72
2021/06/15 09:58:47;;;;;;;5.37;3.08;;;;;;;29.10;45.95;99900.88;1721688;81;21132;-71
2021/06/15 10:01:37;;;;;;;7.05;2.90;;;;;;;29.24;44.21;99912.98;1720872;81;21095;-71
2021/06/15 10:04:16;;;;;;;3.05;2.75;;;;;;;29.28;44.18;99905.98;1743307;78;21796;-71
2021/06/15 10:06:52;;;;;;;5.12;2.67;;;;;;;29.32;43.21;99907.09;1738892;79;20995;-71
2021/06/15 10:09:35;;;;;;;5.20;2.47;;;;;;;29.48;43.92;99904.00;1764468;79;21012;-69
2021/06/15 10:12:07;;;;;;;2.90;2.60;;;;;;;29.54;43.09;99900.28;1756452;79;21060;-70
2021/06/15 10:14:38;;;;;;;2.95;2.65;;;;;;;29.52;42.57;99893.72;1756983;80;21066;-70
2021/06/15 10:17:05;;;;;;;2.92;2.67;;;;;;;29.52;42.06;99901.06;1744736;79;22562;-69
2021/06/15 10:19:33;;;;;;;3.90;2.75;;;;;;;29.58;41.47;99901.40;1765377;79;21003;-70
2021/06/15 10:22:00;;;;;;;4.70;2.50;;;;;;;29.66;40.81;99894.13;1761634;79;21019;-72
2021/06/15 10:24:27;;;;;;;4.78;2.70;;;;;;;29.57;40.99;99893.78;1755650;79;20999;-70
2021/06/15 10:26:54;;;;;;;3.20;2.70;;;;;;;29.55;41.90;99886.42;1760300;79;21149;-70
2021/06/15 10:29:21;;;;;;;2.83;2.42;;;;;;;29.68;42.15;99889.78;1735404;80;21792;-71
2021/06/15 10:31:51;;;;;;;2.67;2.45;;;;;;;29.87;42.08;99893.75;1749920;79;21075;-70
2021/06/15 10:34:56;;;;;;;4.65;2.55;;;;;;;30.08;42.21;99883.31;1748930;79;21063;-71
2021/06/15 10:37:37;;;;;;;2.90;2.27;;;;;;;30.29;42.45;99883.44;1730256;80;21236;-71
2021/06/15 10:40:15;;;;;;;3.40;2.70;;;;;;;30.51;41.03;99873.78;1705606;82;21051;-70
2021/06/15 10:42:43;;;;;;;3.25;2.60;;;;;;;30.66;40.94;99875.22;1711717;80;21815;-70
2021/06/15 10:45:20;;;;;;;2.40;2.20;;;;;;;30.76;40.02;99871.99;1742186;79;21083;-70
2021/06/15 10:48:12;;;;;;;4.45;2.45;;;;;;;30.69;39.35;99871.44;1757061;79;21494;-70
2021/06/15 10:50:46;;;;;;;2.92;2.42;;;;;;;30.63;40.19;99867.56;1756513;79;20972;-70
2021/06/15 10:53:21;;;;;;;3.92;2.65;;;;;;;30.63;39.13;99860.20;1755580;79;21007;-71
2021/06/15 10:55:52;;;;;;;3.42;2.70;;;;;;;30.69;40.37;99848.27;1728267;81;21903;-70
2021/06/15 10:58:37;;;;;;;3.20;2.58;;;;;;;30.86;40.88;99853.48;1738960;82;21130;-71
2021/06/15 11:01:25;;;;;;;3.08;2.60;;;;;;;31.08;41.01;99847.84;1740181;81;21008;-71
2021/06/15 11:04:09;;;;;;;2.45;2.25;;;;;;;31.31;40.05;99850.63;1708151;82;21041;-73
2021/06/15 11:06:43;;;;;;;3.02;2.42;;;;;;;31.31;38.21;99837.80;1683396;81;21559;-73
2021/06/15 11:09:16;;;;;;;2.72;2.27;;;;;;;31.33;38.47;99838.34;1736899;81;21047;-74
2021/06/15 11:11:48;;;;;;;2.50;2.30;;;;;;;31.43;38.79;99829.34;1722380;81;28835;-74
2021/06/15 11:14:22;;;;;;;3.37;2.40;;;;;;;31.49;38.33;99821.98;1735738;80;21062;-71
2021/06/15 11:16:50;;;;;;;4.45;2.20;;;;;;;31.58;38.41;99818.44;1762741;79;21771;-70
2021/06/15 11:19:26;;;;;;;2.95;2.27;;;;;;;31.65;37.33;99815.41;1763135;80;21450;-71
2021/06/15 11:22:07;;;;;;;4.60;2.40;;;;;;;31.68;37.72;99816.80;1728834;81;21838;-71
2021/06/15 11:24:48;;;;;;;2.80;2.40;;;;;;;31.68;36.81;99801.23;1707505;81;21080;-72
2021/06/15 11:27:24;;;;;;;4.87;2.22;;;;;;;31.79;37.18;99800.70;1735657;79;22352;-71
2021/06/15 11:29:55;;;;;;;4.42;2.45;;;;;;;31.99;37.12;99805.30;1742474;80;21016;-72
2021/06/15 11:32:33;;;;;;;3.62;2.40;;;;;;;32.19;35.52;99786.11;1752477;79;21031;-72
2021/06/15 11:35:05;;;;;;;2.58;1.98;;;;;;;32.11;35.57;99783.40;1735344;80;21835;-72
2021/06/15 11:37:50;;;;;;;2.62;2.10;;;;;;;32.10;34.84;99782.31;1759175;79;21463;-72
2021/06/15 11:40:30;;;;;;;13.60;8.25;;;;;;;32.10;35.88;99770.84;1772520;79;20999;-73
2021/06/15 11:43:13;;;;;;;24.25;17.48;;;;;;;32.31;36.38;99771.60;1769515;80;21676;-76
2021/06/15 11:45:43;;;;;;;30.10;16.87;;;;;;;32.51;36.25;99757.58;1765613;80;21070;-76
2021/06/15 11:48:34;;;;;;;5.35;2.65;;;;;;;32.66;35.55;99762.97;1731284;80;21162;-76
2021/06/15 11:51:08;;;;;;;18.07;10.55;;;;;;;32.49;34.12;99760.59;1741969;80;21156;-74